Time;durP1;ratioP1;P1;durP2;ratioP2;P2;SDS_P1;SDS_P2;PMS_P1;PMS_P2;Temp;Humidity;BMP_temperature;BMP_pressure;BME280_temperature;BME280_humidity;BME280_pressure;Samples;Min_cycle;Max_cycle;Signal;HPM_P1;HPM_P2
2023/07/29 00:01:28;;;;;;;4.07;2.92;;;20.90;99.90;;;;;;4067776;29;20048;-52
2023/07/29 00:03:31;;;;;;;5.45;2.70;;;20.90;99.90;;;;;;4067908;29;20557;-52
2023/07/29 00:05:36;;;;;;;4.53;2.78;;;20.90;99.90;;;;;;4068475;29;20052;-52
2023/07/29 00:07:38;;;;;;;5.53;2.83;;;20.90;99.90;;;;;;4069144;29;20096;-53
2023/07/29 00:09:40;;;;;;;6.95;2.85;;;21.00;99.90;;;;;;4068820;29;20500;-52
2023/07/29 00:11:42;;;;;;;3.80;2.70;;;20.90;99.90;;;;;;4067361;29;20040;-53
2023/07/29 00:13:44;;;;;;;5.65;3.53;;;21.00;99.90;;;;;;4068812;29;20083;-53
2023/07/29 00:15:46;;;;;;;6.68;2.78;;;21.00;99.90;;;;;;4069025;29;20052;-63
2023/07/29 00:17:48;;;;;;;4.85;2.95;;;20.90;99.90;;;;;;4068908;29;20500;-52
2023/07/29 00:19:50;;;;;;;5.00;2.58;;;20.90;99.90;;;;;;4066515;29;20076;-52
2023/07/29 00:21:54;;;;;;;5.88;2.17;;;20.90;99.90;;;;;;4067222;29;20043;-52
2023/07/29 00:24:00;;;;;;;2.78;2.45;;;20.90;99.90;;;;;;4068192;29;20143;-53
2023/07/29 00:26:02;;;;;;;4.18;2.50;;;20.90;99.90;;;;;;4068476;29;20117;-52
2023/07/29 00:28:05;;;;;;;4.00;2.47;;;20.90;99.90;;;;;;4068371;29;20052;-52
2023/07/29 00:30:08;;;;;;;6.00;2.60;;;20.90;99.90;;;;;;4068123;29;20428;-52
2023/07/29 00:32:10;;;;;;;4.80;2.30;;;20.90;99.90;;;;;;4067534;29;20079;-52
2023/07/29 00:34:19;;;;;;;2.95;2.28;;;20.80;99.90;;;;;;4066911;29;20060;-52
2023/07/29 00:36:21;;;;;;;2.35;2.15;;;20.80;99.90;;;;;;4068187;29;20048;-52
2023/07/29 00:38:24;;;;;;;3.72;2.00;;;20.80;99.90;;;;;;4068530;29;20055;-52
2023/07/29 00:40:28;;;;;;;3.63;2.50;;;20.70;99.90;;;;;;4068169;29;20048;-51
2023/07/29 00:42:30;;;;;;;5.53;2.50;;;20.70;99.90;;;;;;4067505;29;20055;-53
2023/07/29 00:44:33;;;;;;;3.63;2.70;;;20.70;99.90;;;;;;4068411;29;20128;-52
2023/07/29 00:46:36;;;;;;;4.55;2.80;;;20.70;99.90;;;;;;4068045;29;20064;-53
2023/07/29 00:48:39;;;;;;;3.65;2.15;;;20.70;99.90;;;;;;4067634;29;20453;-51
2023/07/29 00:50:41;;;;;;;3.60;2.10;;;20.70;99.90;;;;;;4067982;29;20052;-52
2023/07/29 00:52:43;;;;;;;2.75;1.92;;;20.70;99.90;;;;;;4067161;29;20055;-53
2023/07/29 00:54:47;;;;;;;2.70;1.77;;;20.70;99.90;;;;;;4068014;29;20056;-51
2023/07/29 00:56:49;;;;;;;3.85;1.88;;;20.70;99.90;;;;;;4068173;29;20071;-51
2023/07/29 00:58:56;;;;;;;2.38;1.60;;;20.70;99.90;;;;;;4068331;29;20048;-52
2023/07/29 01:00:58;;;;;;;4.38;1.90;;;20.70;99.90;;;;;;4068302;29;20056;-52
2023/07/29 01:03:00;;;;;;;1.85;1.50;;;20.70;99.90;;;;;;4066913;29;20055;-52
2023/07/29 01:05:03;;;;;;;1.98;1.50;;;20.70;99.90;;;;;;4068053;29;20070;-52
2023/07/29 01:07:14;;;;;;;9.10;1.92;;;20.70;99.90;;;;;;4069180;29;20571;-52
2023/07/29 01:09:25;;;;;;;1.95;1.27;;;20.70;99.90;;;;;;4069277;29;20138;-52
2023/07/29 01:11:46;;;;;;;1.85;1.40;;;20.60;99.90;;;;;;4069026;29;20072;-51
2023/07/29 01:13:53;;;;;;;1.75;1.30;;;20.60;99.90;;;;;;4069348;29;20052;-51
2023/07/29 01:15:58;;;;;;;5.57;1.52;;;20.60;99.90;;;;;;4068448;29;20053;-51
2023/07/29 01:18:05;;;;;;;2.05;1.10;;;20.60;99.90;;;;;;4067967;29;20059;-50
2023/07/29 01:20:11;;;;;;;2.95;1.15;;;20.60;99.90;;;;;;4067808;29;20047;-52
2023/07/29 01:22:15;;;;;;;2.10;1.15;;;20.50;99.90;;;;;;4068765;29;20052;-51
2023/07/29 01:24:18;;;;;;;1.52;1.10;;;20.50;99.90;;;;;;4075628;29;20484;-56
2023/07/29 01:26:23;;;;;;;4.50;1.30;;;20.50;99.90;;;;;;4087283;29;20107;-53
2023/07/29 01:28:25;;;;;;;1.98;1.25;;;20.40;99.90;;;;;;4087895;29;20056;-54
2023/07/29 01:30:33;;;;;;;6.07;1.30;;;20.40;99.90;;;;;;4087219;29;20044;-55
2023/07/29 01:32:40;;;;;;;5.93;1.45;;;20.40;99.90;;;;;;4086338;29;20051;-51
2023/07/29 01:34:47;;;;;;;5.68;1.23;;;20.40;99.90;;;;;;4086710;29;20055;-52
2023/07/29 01:36:51;;;;;;;2.55;1.33;;;20.40;99.90;;;;;;4086669;29;20544;-52
2023/07/29 01:38:55;;;;;;;2.55;1.17;;;20.30;99.90;;;;;;4086521;29;20518;-52
2023/07/29 01:41:01;;;;;;;6.10;1.33;;;20.30;99.90;;;;;;4086356;29;20128;-52
2023/07/29 01:43:03;;;;;;;3.72;1.10;;;20.30;99.90;;;;;;4085692;29;20790;-51
2023/07/29 01:45:06;;;;;;;2.08;1.30;;;20.30;99.90;;;;;;4085824;29;20571;-51
2023/07/29 01:47:08;;;;;;;2.25;1.05;;;20.30;99.90;;;;;;4069099;29;20115;-52
2023/07/29 01:49:10;;;;;;;5.72;1.33;;;20.20;99.90;;;;;;4085861;29;20447;-52
2023/07/29 01:51:13;;;;;;;1.60;1.10;;;20.20;99.90;;;;;;4086128;29;20094;-52
2023/07/29 01:53:15;;;;;;;2.78;1.08;;;20.20;99.90;;;;;;4085618;29;20075;-52
2023/07/29 01:55:17;;;;;;;3.80;1.10;;;20.20;99.90;;;;;;4085954;29;20067;-53
2023/07/29 01:57:21;;;;;;;2.53;1.10;;;20.20;99.90;;;;;;4085836;29;20051;-52
2023/07/29 01:59:23;;;;;;;2.40;1.10;;;20.10;99.90;;;;;;4085008;29;20431;-52
2023/07/29 02:01:25;;;;;;;2.22;1.17;;;20.10;99.90;;;;;;4085264;29;20047;-53
2023/07/29 02:03:27;;;;;;;2.47;1.20;;;20.10;99.90;;;;;;4085565;29;20115;-51
2023/07/29 02:05:29;;;;;;;2.10;1.00;;;20.10;99.90;;;;;;4085552;29;20122;-53
2023/07/29 02:07:33;;;;;;;6.45;1.60;;;20.00;99.90;;;;;;4085790;29;20058;-52
2023/07/29 02:09:35;;;;;;;4.68;1.02;;;20.10;99.90;;;;;;4068762;29;20067;-53
2023/07/29 02:11:37;;;;;;;1.45;0.90;;;20.00;99.90;;;;;;4084246;29;20047;-51
2023/07/29 02:13:40;;;;;;;1.90;1.20;;;20.00;99.90;;;;;;4085338;29;20051;-51
2023/07/29 02:15:42;;;;;;;4.50;1.10;;;20.00;99.90;;;;;;4085290;29;20056;-52
2023/07/29 02:17:45;;;;;;;4.82;1.02;;;20.00;99.90;;;;;;4085959;29;20095;-52
2023/07/29 02:19:47;;;;;;;1.05;0.90;;;19.90;99.90;;;;;;4085629;29;20051;-54
2023/07/29 02:21:49;;;;;;;2.88;0.98;;;19.90;99.90;;;;;;4084549;29;20063;-55
2023/07/29 02:23:51;;;;;;;1.10;1.00;;;20.00;99.90;;;;;;4084880;29;20468;-54
2023/07/29 02:25:53;;;;;;;1.30;1.15;;;19.90;99.90;;;;;;4069644;29;20051;-52
2023/07/29 02:27:55;;;;;;;2.05;1.00;;;19.90;99.90;;;;;;4069662;29;20127;-51
2023/07/29 02:29:59;;;;;;;0.90;0.77;;;19.90;99.90;;;;;;4069381;29;20051;-51
2023/07/29 02:32:02;;;;;;;1.13;1.02;;;19.90;99.90;;;;;;4069147;29;20069;-52
2023/07/29 02:34:04;;;;;;;1.45;0.80;;;19.90;99.90;;;;;;4068711;29;20075;-52
2023/07/29 02:36:06;;;;;;;2.40;1.10;;;19.90;99.90;;;;;;4069324;29;20056;-54
2023/07/29 02:38:08;;;;;;;2.42;0.93;;;19.80;99.90;;;;;;4069462;29;20491;-52
2023/07/29 02:40:11;;;;;;;1.67;1.10;;;19.70;99.90;;;;;;4069453;29;20484;-52
2023/07/29 02:42:13;;;;;;;2.72;1.00;;;19.80;99.90;;;;;;4068701;29;20126;-51
2023/07/29 02:44:15;;;;;;;2.55;1.00;;;19.70;99.90;;;;;;4069113;29;20148;-51
2023/07/29 02:46:18;;;;;;;3.50;1.00;;;19.70;99.90;;;;;;4069291;29;20048;-51
2023/07/29 02:48:21;;;;;;;3.35;1.23;;;19.80;99.90;;;;;;4069737;29;20139;-51
2023/07/29 02:50:23;;;;;;;1.30;1.00;;;19.70;99.90;;;;;;4069714;29;20052;-56
2023/07/29 02:52:25;;;;;;;3.05;1.05;;;19.70;99.90;;;;;;4069042;29;20071;-52
2023/07/29 02:54:27;;;;;;;1.00;0.90;;;19.70;99.90;;;;;;4069176;29;20127;-51
2023/07/29 02:56:30;;;;;;;1.35;0.80;;;19.70;99.90;;;;;;4067846;29;20161;-52
2023/07/29 02:58:32;;;;;;;2.03;1.00;;;19.70;99.90;;;;;;4069255;29;20476;-52
2023/07/29 03:00:35;;;;;;;1.58;0.82;;;19.60;99.90;;;;;;4069654;29;20119;-52
2023/07/29 03:02:38;;;;;;;5.20;1.23;;;19.60;99.90;;;;;;4068444;29;20099;-52
2023/07/29 03:04:41;;;;;;;2.80;1.02;;;19.50;99.90;;;;;;4069547;29;20113;-56
2023/07/29 03:06:43;;;;;;;2.63;1.00;;;19.50;99.90;;;;;;4069048;29;20052;-58
2023/07/29 03:08:45;;;;;;;1.92;0.98;;;19.50;99.90;;;;;;4068943;29;20048;-52
2023/07/29 03:10:47;;;;;;;1.23;1.00;;;19.60;99.90;;;;;;4069166;29;20480;-52
2023/07/29 03:12:49;;;;;;;2.45;1.00;;;19.50;99.90;;;;;;4068063;29;20056;-52
2023/07/29 03:14:51;;;;;;;1.10;0.80;;;19.50;99.90;;;;;;4068863;29;20519;-51
2023/07/29 03:16:53;;;;;;;2.03;0.80;;;19.50;99.90;;;;;;4052074;29;20053;-54
2023/07/29 03:18:57;;;;;;;2.22;1.00;;;19.50;99.90;;;;;;4068990;29;20059;-53
2023/07/29 03:21:00;;;;;;;0.90;0.87;;;19.50;99.90;;;;;;4068721;29;20048;-53
2023/07/29 03:23:02;;;;;;;3.10;0.77;;;19.50;99.90;;;;;;4067767;29;20669;-54
2023/07/29 03:25:06;;;;;;;2.83;0.90;;;19.50;99.90;;;;;;4068794;29;20052;-53
2023/07/29 03:27:09;;;;;;;1.33;1.00;;;19.50;99.90;;;;;;4068479;29;20060;-54
2023/07/29 03:29:11;;;;;;;3.15;1.08;;;19.50;99.90;;;;;;4067688;29;20131;-53
2023/07/29 03:31:14;;;;;;;1.40;1.30;;;19.50;99.90;;;;;;4068467;29;20052;-54
2023/07/29 03:33:16;;;;;;;2.67;0.90;;;19.50;99.90;;;;;;4067808;29;20083;-54
2023/07/29 03:35:19;;;;;;;2.65;0.85;;;19.40;99.90;;;;;;4068672;29;20091;-54
2023/07/29 03:37:21;;;;;;;3.20;1.00;;;19.40;99.90;;;;;;4068568;29;20048;-53
2023/07/29 03:39:23;;;;;;;3.28;0.88;;;19.40;99.90;;;;;;4068731;29;20087;-53
2023/07/29 03:41:25;;;;;;;2.58;1.10;;;19.40;99.90;;;;;;4068229;29;20076;-53
2023/07/29 03:43:27;;;;;;;3.05;0.90;;;19.30;99.90;;;;;;4067789;29;20055;-54
2023/07/29 03:45:29;;;;;;;2.42;1.10;;;19.30;99.90;;;;;;4067539;29;20075;-54
2023/07/29 03:47:32;;;;;;;2.13;1.02;;;19.30;99.90;;;;;;4068270;29;20469;-54
2023/07/29 03:49:34;;;;;;;2.80;1.35;;;19.30;99.90;;;;;;4068532;29;20056;-54
2023/07/29 03:51:37;;;;;;;1.40;1.13;;;19.30;99.90;;;;;;4068425;29;20150;-53
2023/07/29 03:53:39;;;;;;;5.25;1.08;;;19.30;99.90;;;;;;4067486;29;20052;-54
2023/07/29 03:55:41;;;;;;;1.23;1.08;;;19.20;99.90;;;;;;4067951;29;20056;-54
2023/07/29 03:57:43;;;;;;;2.83;1.20;;;19.20;99.90;;;;;;4068184;29;20044;-54
2023/07/29 03:59:45;;;;;;;1.77;1.00;;;19.20;99.90;;;;;;4068302;29;20151;-54
2023/07/29 04:01:47;;;;;;;2.03;1.10;;;19.10;99.90;;;;;;4068165;29;20076;-54
2023/07/29 04:03:52;;;;;;;2.45;1.35;;;19.10;99.90;;;;;;4068212;29;20132;-54
2023/07/29 04:05:54;;;;;;;1.27;1.02;;;19.10;99.90;;;;;;4067052;29;20492;-54
2023/07/29 04:07:57;;;;;;;2.78;1.40;;;19.10;99.90;;;;;;4068222;29;20135;-53
2023/07/29 04:10:00;;;;;;;4.72;1.20;;;19.00;99.90;;;;;;4068260;29;20055;-55
2023/07/29 04:12:03;;;;;;;1.60;1.15;;;19.00;99.90;;;;;;4067464;29;20068;-53
2023/07/29 04:14:07;;;;;;;2.97;1.75;;;18.90;99.90;;;;;;4068219;29;20131;-54
2023/07/29 04:16:09;;;;;;;2.90;2.58;;;19.00;99.90;;;;;;4068238;29;20451;-54
2023/07/29 04:18:11;;;;;;;1.80;1.48;;;18.90;99.90;;;;;;4068066;29;20488;-54
2023/07/29 04:20:13;;;;;;;2.00;1.40;;;18.90;99.90;;;;;;4068149;29;20135;-54
2023/07/29 04:22:16;;;;;;;3.30;1.40;;;18.90;99.90;;;;;;4067413;29;20075;-54
2023/07/29 04:24:20;;;;;;;1.30;1.20;;;18.90;99.90;;;;;;4067815;29;20078;-54
2023/07/29 04:26:22;;;;;;;3.53;1.38;;;18.90;99.90;;;;;;4067741;29;20166;-54
2023/07/29 04:28:24;;;;;;;3.90;1.60;;;18.90;99.90;;;;;;4067905;29;20063;-53
2023/07/29 04:30:26;;;;;;;1.38;1.10;;;18.80;99.90;;;;;;4067921;29;20076;-53
2023/07/29 04:32:28;;;;;;;2.83;1.35;;;18.90;99.90;;;;;;4067210;29;20115;-53
2023/07/29 04:34:31;;;;;;;1.65;1.30;;;18.90;99.90;;;;;;4067900;29;20056;-53
2023/07/29 04:36:33;;;;;;;3.70;1.58;;;18.80;99.90;;;;;;4067803;29;20444;-60
2023/07/29 04:38:37;;;;;;;1.30;1.20;;;18.80;99.90;;;;;;4067924;29;20044;-54
2023/07/29 04:40:40;;;;;;;3.58;1.40;;;18.80;99.90;;;;;;4067460;29;20059;-54
2023/07/29 04:42:42;;;;;;;4.30;1.40;;;18.80;99.90;;;;;;4067251;29;20403;-53
2023/07/29 04:44:44;;;;;;;1.90;1.60;;;18.80;99.90;;;;;;4067954;29;20491;-53
2023/07/29 04:46:46;;;;;;;1.33;1.23;;;18.80;99.90;;;;;;4067753;29;20501;-55
2023/07/29 04:48:48;;;;;;;1.65;1.40;;;18.80;99.90;;;;;;4067731;29;20411;-54
2023/07/29 04:50:50;;;;;;;1.83;1.35;;;18.80;99.90;;;;;;4068091;29;20072;-54
2023/07/29 04:52:53;;;;;;;1.75;1.30;;;18.80;99.90;;;;;;4067336;29;20498;-54
2023/07/29 04:54:55;;;;;;;7.03;1.70;;;18.80;99.90;;;;;;4067423;29;20111;-51
2023/07/29 04:56:58;;;;;;;2.97;1.20;;;18.80;99.90;;;;;;4068893;29;20147;-53
2023/07/29 04:59:00;;;;;;;3.60;1.48;;;18.90;99.90;;;;;;4070988;29;20054;-52
2023/07/29 05:01:03;;;;;;;1.90;1.27;;;18.90;99.90;;;;;;4071017;29;20122;-51
2023/07/29 05:03:06;;;;;;;1.42;1.20;;;18.90;99.90;;;;;;4070355;29;20487;-50
2023/07/29 05:05:08;;;;;;;1.50;1.10;;;18.90;99.90;;;;;;4071216;29;20056;-52
2023/07/29 05:07:10;;;;;;;1.42;1.33;;;18.90;99.90;;;;;;4070893;29;20131;-58
2023/07/29 05:09:13;;;;;;;3.63;1.38;;;18.80;99.90;;;;;;4070512;29;20049;-52
2023/07/29 05:11:15;;;;;;;1.17;0.70;;;18.80;99.90;;;;;;4070847;29;20056;-51
2023/07/29 05:13:19;;;;;;;4.53;1.20;;;18.80;99.90;;;;;;4070209;29;20100;-51
2023/07/29 05:15:22;;;;;;;2.25;1.30;;;18.80;99.90;;;;;;4070741;29;20139;-51
2023/07/29 05:17:24;;;;;;;4.00;1.30;;;18.80;99.90;;;;;;4069553;29;20052;-52
2023/07/29 05:19:26;;;;;;;1.38;1.25;;;18.80;99.90;;;;;;4070435;29;20059;-52
2023/07/29 05:21:29;;;;;;;1.98;1.40;;;18.90;99.90;;;;;;4070552;29;20488;-51
2023/07/29 05:23:31;;;;;;;4.07;1.23;;;18.90;99.90;;;;;;4069130;29;20453;-51
2023/07/29 05:25:36;;;;;;;2.17;1.20;;;18.90;99.90;;;;;;4070171;29;20050;-52
2023/07/29 05:27:38;;;;;;;2.17;1.23;;;19.00;99.90;;;;;;4070498;29;20059;-53
2023/07/29 05:29:42;;;;;;;1.40;1.10;;;19.00;99.90;;;;;;4070620;29;20477;-52
2023/07/29 05:31:44;;;;;;;1.27;1.13;;;19.00;99.90;;;;;;4070266;29;20048;-53
2023/07/29 05:33:46;;;;;;;1.60;1.02;;;19.00;99.90;;;;;;4069714;29;20067;-52
2023/07/29 05:35:48;;;;;;;1.20;1.08;;;19.00;99.90;;;;;;4070424;29;20063;-51
2023/07/29 05:37:50;;;;;;;2.83;1.30;;;19.00;99.90;;;;;;4070215;29;20464;-53
2023/07/29 05:39:53;;;;;;;2.25;1.20;;;19.00;99.90;;;;;;4070341;29;20051;-56
2023/07/29 05:41:55;;;;;;;2.33;1.13;;;19.00;99.90;;;;;;4070398;29;20068;-52
2023/07/29 05:43:57;;;;;;;3.40;1.27;;;19.00;99.90;;;;;;4069664;29;20072;-52
2023/07/29 05:46:00;;;;;;;4.22;1.23;;;19.00;99.90;;;;;;4070367;29;20415;-52
2023/07/29 05:48:02;;;;;;;1.85;1.10;;;19.00;99.90;;;;;;4070160;29;20044;-53
2023/07/29 05:50:05;;;;;;;1.10;1.00;;;18.90;99.90;;;;;;4070198;29;20048;-52
2023/07/29 05:52:08;;;;;;;2.40;1.10;;;18.90;99.90;;;;;;4069762;29;20051;-52
2023/07/29 05:54:10;;;;;;;1.40;0.93;;;18.90;99.90;;;;;;4068517;29;20068;-51
2023/07/29 05:56:12;;;;;;;1.52;1.02;;;19.00;99.90;;;;;;4070079;29;20496;-53
2023/07/29 05:58:14;;;;;;;3.50;0.90;;;19.00;99.90;;;;;;4069940;29;20508;-52
2023/07/29 06:00:18;;;;;;;3.78;1.23;;;19.00;99.90;;;;;;4068939;29;20059;-51
2023/07/29 06:02:21;;;;;;;1.83;1.23;;;19.00;99.90;;;;;;4069453;29;20059;-53
2023/07/29 06:04:23;;;;;;;1.00;0.85;;;19.00;99.90;;;;;;4069894;29;20056;-51
2023/07/29 06:06:25;;;;;;;1.98;1.20;;;19.10;99.90;;;;;;4069659;29;20075;-53
2023/07/29 06:08:29;;;;;;;1.60;1.02;;;19.00;99.90;;;;;;4068898;29;20492;-52
2023/07/29 06:10:31;;;;;;;1.42;1.00;;;19.00;99.90;;;;;;4069959;29;20460;-51
2023/07/29 06:12:33;;;;;;;0.90;0.90;;;19.10;99.90;;;;;;4069032;29;20076;-53
2023/07/29 06:14:35;;;;;;;1.33;1.08;;;19.10;99.90;;;;;;4069625;29;20492;-52
2023/07/29 06:16:37;;;;;;;1.23;1.00;;;19.10;99.90;;;;;;4069554;29;20048;-52
2023/07/29 06:18:41;;;;;;;1.88;1.20;;;19.10;99.90;;;;;;4069838;29;20045;-52
2023/07/29 06:20:43;;;;;;;1.70;1.13;;;19.20;99.90;;;;;;4069198;29;20076;-52
2023/07/29 06:22:45;;;;;;;2.15;1.13;;;19.20;99.90;;;;;;4068769;29;20056;-52
2023/07/29 06:24:47;;;;;;;2.15;1.38;;;19.20;99.90;;;;;;4069247;29;20052;-52
2023/07/29 06:26:50;;;;;;;2.05;1.10;;;19.30;99.90;;;;;;4069757;29;20060;-51
2023/07/29 06:28:52;;;;;;;2.38;1.00;;;19.30;99.90;;;;;;4069466;29;20059;-51
2023/07/29 06:30:54;;;;;;;1.25;0.93;;;19.40;99.90;;;;;;4069685;29;20132;-51
2023/07/29 06:32:56;;;;;;;1.27;1.10;;;19.40;99.90;;;;;;4069008;29;20056;-52
2023/07/29 06:34:59;;;;;;;1.20;0.93;;;19.50;99.90;;;;;;4069400;29;20052;-51
2023/07/29 06:37:01;;;;;;;3.42;1.33;;;19.50;99.90;;;;;;4069304;29;20076;-52
2023/07/29 06:39:04;;;;;;;1.10;1.00;;;19.50;99.90;;;;;;4069314;29;20048;-52
2023/07/29 06:41:06;;;;;;;1.65;1.20;;;19.60;99.90;;;;;;4069407;29;20048;-51
2023/07/29 06:43:08;;;;;;;1.17;1.05;;;19.60;99.90;;;;;;4068919;29;20087;-52
2023/07/29 06:45:10;;;;;;;1.35;0.80;;;19.80;99.90;;;;;;4069534;29;20107;-52
2023/07/29 06:47:12;;;;;;;2.90;0.88;;;19.80;99.90;;;;;;4069263;29;20044;-52
2023/07/29 06:49:14;;;;;;;4.95;0.80;;;20.00;99.90;;;;;;4069536;29;20092;-52
2023/07/29 06:51:17;;;;;;;2.05;0.80;;;20.10;99.90;;;;;;4069014;29;20055;-52
2023/07/29 06:53:19;;;;;;;0.85;0.80;;;20.10;99.90;;;;;;4069167;29;20506;-51
2023/07/29 06:55:21;;;;;;;3.15;0.90;;;20.10;99.90;;;;;;4069523;29;20059;-52
2023/07/29 06:57:23;;;;;;;2.90;0.70;;;20.10;99.90;;;;;;4070208;29;20048;-52
2023/07/29 06:59:25;;;;;;;0.90;0.73;;;20.20;99.90;;;;;;4070771;29;20071;-51
2023/07/29 07:01:27;;;;;;;2.60;0.88;;;20.20;99.90;;;;;;4070452;29;20056;-52
2023/07/29 07:03:30;;;;;;;1.50;0.70;;;20.40;99.90;;;;;;4068981;29;20047;-51
2023/07/29 07:05:32;;;;;;;1.08;0.63;;;20.40;99.90;;;;;;4070278;29;20056;-52
2023/07/29 07:07:36;;;;;;;0.60;0.60;;;20.50;99.90;;;;;;4070115;29;20048;-56
2023/07/29 07:09:38;;;;;;;2.17;0.90;;;20.50;99.90;;;;;;4069251;29;20056;-52
2023/07/29 07:11:40;;;;;;;2.95;0.70;;;20.60;99.90;;;;;;4069333;29;20419;-52
2023/07/29 07:13:42;;;;;;;0.90;0.50;;;20.70;99.90;;;;;;4068381;29;20106;-52
2023/07/29 07:15:45;;;;;;;2.15;0.60;;;20.70;99.90;;;;;;4068920;29;20472;-52
2023/07/29 07:17:47;;;;;;;1.38;0.70;;;20.80;99.90;;;;;;4069194;29;20076;-52
2023/07/29 07:19:49;;;;;;;1.75;0.80;;;20.70;99.90;;;;;;4068964;29;20075;-52
2023/07/29 07:21:51;;;;;;;0.60;0.50;;;20.70;99.90;;;;;;4069075;29;20048;-52
2023/07/29 07:23:55;;;;;;;2.15;0.70;;;20.60;99.90;;;;;;4068313;29;20502;-51
2023/07/29 07:25:57;;;;;;;0.70;0.68;;;20.50;99.90;;;;;;4069518;29;20139;-53
2023/07/29 07:27:59;;;;;;;2.03;0.85;;;20.40;99.90;;;;;;4069220;29;20052;-52
2023/07/29 07:30:01;;;;;;;1.48;0.70;;;20.40;99.90;;;;;;4069067;29;20500;-52
2023/07/29 07:32:03;;;;;;;1.83;0.90;;;20.40;99.90;;;;;;4068737;29;20082;-52
2023/07/29 07:34:06;;;;;;;4.30;0.60;;;20.40;99.90;;;;;;4067841;29;20416;-52
2023/07/29 07:36:08;;;;;;;1.48;0.50;;;20.40;99.90;;;;;;4068940;29;20052;-52
2023/07/29 07:38:10;;;;;;;0.85;0.55;;;20.30;99.90;;;;;;4068566;29;20054;-52
2023/07/29 07:40:14;;;;;;;1.45;0.70;;;20.30;99.90;;;;;;4068703;29;20128;-52
2023/07/29 07:42:15;;;;;;;1.75;0.80;;;20.30;99.90;;;;;;4068611;29;20147;-52
2023/07/29 07:44:19;;;;;;;0.82;0.55;;;20.30;99.90;;;;;;4067632;29;20064;-52
2023/07/29 07:46:21;;;;;;;2.03;0.82;;;20.30;99.90;;;;;;4051811;29;20461;-52
2023/07/29 07:48:23;;;;;;;2.25;0.82;;;20.30;99.90;;;;;;4068008;29;20044;-52
2023/07/29 07:50:28;;;;;;;0.75;0.63;;;20.40;99.90;;;;;;4068235;29;20048;-51
2023/07/29 07:52:30;;;;;;;1.83;0.60;;;20.40;99.90;;;;;;4068054;29;20052;-52
2023/07/29 07:54:32;;;;;;;1.88;0.70;;;20.50;99.90;;;;;;4068371;29;20135;-52
2023/07/29 07:56:35;;;;;;;3.85;1.00;;;20.60;99.90;;;;;;4067356;29;20048;-53
2023/07/29 07:58:39;;;;;;;3.63;0.80;;;20.70;99.90;;;;;;4068889;29;20052;-51
2023/07/29 08:00:41;;;;;;;1.17;0.60;;;20.90;99.90;;;;;;4068307;29;20080;-52
2023/07/29 08:02:44;;;;;;;1.75;0.75;;;20.90;99.90;;;;;;4067292;29;20048;-53
2023/07/29 08:04:46;;;;;;;2.70;0.68;;;20.90;99.90;;;;;;4068268;29;20404;-52
2023/07/29 08:06:48;;;;;;;1.05;0.85;;;21.00;99.90;;;;;;4068125;29;20420;-52
2023/07/29 08:08:50;;;;;;;2.42;0.60;;;21.10;99.90;;;;;;4068280;29;20399;-52
2023/07/29 08:10:53;;;;;;;0.75;0.73;;;21.20;99.90;;;;;;4068222;29;20381;-52
2023/07/29 08:12:56;;;;;;;8.15;0.73;;;21.30;99.90;;;;;;4050743;29;20266;-52
2023/07/29 08:14:58;;;;;;;2.70;0.80;;;21.40;99.90;;;;;;4067980;29;20131;-52
2023/07/29 08:17:01;;;;;;;1.20;1.02;;;21.50;99.90;;;;;;4067580;29;20052;-53
2023/07/29 08:19:03;;;;;;;0.52;0.52;;;21.60;99.90;;;;;;4068072;29;20126;-53
2023/07/29 08:21:06;;;;;;;1.17;0.70;;;21.60;99.90;;;;;;4068065;29;20506;-52
2023/07/29 08:23:08;;;;;;;1.27;0.68;;;21.70;99.90;;;;;;4067148;29;20052;-52
2023/07/29 08:25:10;;;;;;;2.15;0.70;;;21.80;99.90;;;;;;4067668;29;20048;-52
2023/07/29 08:27:12;;;;;;;3.03;0.73;;;21.70;99.90;;;;;;4067965;29;20048;-52
2023/07/29 08:29:15;;;;;;;1.20;0.70;;;21.60;99.90;;;;;;4067727;29;20057;-52
2023/07/29 08:31:17;;;;;;;3.15;0.70;;;21.60;99.90;;;;;;4068492;29;20052;-51
2023/07/29 08:33:19;;;;;;;1.17;0.60;;;21.50;99.90;;;;;;4072426;29;20040;-51
2023/07/29 08:35:22;;;;;;;2.13;0.60;;;21.40;99.90;;;;;;4073154;29;20052;-51
2023/07/29 08:37:23;;;;;;;1.90;0.80;;;21.40;99.90;;;;;;4073294;29;20059;-53
2023/07/29 08:39:27;;;;;;;1.98;0.88;;;21.50;99.90;;;;;;4073171;29;20048;-53
2023/07/29 08:41:37;;;;;;;2.72;0.65;;;21.50;99.90;;;;;;4073213;29;20433;-52
2023/07/29 08:43:43;;;;;;;2.80;0.90;;;21.50;99.90;;;;;;4072317;29;20088;-52
2023/07/29 08:45:47;;;;;;;1.05;0.80;;;21.60;99.90;;;;;;4072909;29;20376;-53
2023/07/29 08:47:51;;;;;;;2.60;0.70;;;21.60;99.90;;;;;;4073071;29;20058;-52
2023/07/29 08:49:54;;;;;;;0.70;0.70;;;21.60;99.90;;;;;;4073012;29;20099;-52
2023/07/29 08:51:57;;;;;;;0.70;0.70;;;21.70;99.90;;;;;;4072867;29;20083;-52
2023/07/29 08:54:01;;;;;;;3.55;0.63;;;21.80;99.90;;;;;;4072275;29;20056;-52
2023/07/29 08:56:04;;;;;;;2.00;0.90;;;22.00;99.90;;;;;;4072853;29;20051;-55
2023/07/29 08:58:07;;;;;;;2.60;0.70;;;22.10;99.90;;;;;;4071892;29;20076;-52
2023/07/29 09:00:11;;;;;;;3.67;0.77;;;22.20;99.90;;;;;;4072520;29;20078;-52
2023/07/29 09:02:14;;;;;;;1.60;0.90;;;22.20;99.90;;;;;;4073212;29;20460;-52
2023/07/29 09:04:17;;;;;;;1.30;0.85;;;22.30;99.90;;;;;;4069948;29;20099;-53
2023/07/29 09:06:22;;;;;;;1.55;0.77;;;22.30;99.90;;;;;;4071446;29;20510;-53
2023/07/29 09:08:25;;;;;;;1.73;0.90;;;22.40;99.90;;;;;;4072318;29;20056;-53
2023/07/29 09:10:27;;;;;;;3.63;0.80;;;22.60;99.90;;;;;;4068668;29;20130;-53
2023/07/29 09:12:30;;;;;;;2.13;0.70;;;22.70;99.90;;;;;;4056513;29;20056;-52
2023/07/29 09:14:32;;;;;;;0.93;0.60;;;22.90;99.90;;;;;;4055616;29;20139;-52
2023/07/29 09:16:34;;;;;;;1.45;0.95;;;22.90;99.90;;;;;;4059077;29;20756;-52
2023/07/29 09:18:38;;;;;;;0.85;0.65;;;22.90;99.90;;;;;;4071023;29;20079;-53
2023/07/29 09:20:41;;;;;;;1.35;0.68;;;23.10;99.90;;;;;;4071636;29;20044;-53
2023/07/29 09:22:44;;;;;;;2.22;0.90;;;23.20;99.90;;;;;;4071746;29;20062;-53
2023/07/29 09:24:46;;;;;;;1.17;0.70;;;23.30;99.90;;;;;;4070829;29;20095;-52
2023/07/29 09:26:53;;;;;;;0.88;0.73;;;23.30;99.90;;;;;;4071183;29;20060;-53
2023/07/29 09:28:57;;;;;;;1.30;0.77;;;23.40;99.90;;;;;;4071719;29;20052;-55
2023/07/29 09:30:59;;;;;;;1.30;0.85;;;23.40;99.90;;;;;;4071692;29;20131;-55
2023/07/29 09:33:01;;;;;;;0.68;0.68;;;23.30;99.90;;;;;;4071260;29;20106;-54
2023/07/29 09:35:11;;;;;;;2.42;0.82;;;23.40;99.90;;;;;;4071637;29;20052;-53
2023/07/29 09:37:16;;;;;;;1.52;0.82;;;23.60;99.90;;;;;;4071616;29;20048;-54
2023/07/29 09:39:19;;;;;;;2.75;0.93;;;23.60;99.90;;;;;;4071871;29;20150;-55
2023/07/29 09:41:23;;;;;;;0.95;0.82;;;23.50;99.70;;;;;;4071871;29;20071;-53
2023/07/29 09:43:31;;;;;;;1.65;1.00;;;23.50;99.70;;;;;;4069666;29;20048;-53
2023/07/29 09:45:35;;;;;;;1.92;0.80;;;23.40;99.60;;;;;;4069654;29;20056;-53
2023/07/29 09:47:37;;;;;;;1.20;0.93;;;23.30;99.90;;;;;;4069286;29;20076;-52
2023/07/29 09:49:39;;;;;;;0.75;0.75;;;23.30;99.90;;;;;;4069305;29;20433;-53
2023/07/29 09:51:42;;;;;;;0.82;0.70;;;23.30;99.90;;;;;;4069275;29;20104;-53
2023/07/29 09:53:47;;;;;;;3.28;1.15;;;23.40;99.90;;;;;;4055121;29;20497;-53
2023/07/29 09:55:50;;;;;;;;;;;23.50;99.90;;;;;;4054802;29;20059;-53
2023/07/29 09:58:02;;;;;;;1.85;0.93;;;23.50;99.60;;;;;;4054166;29;19927;-53
2023/07/29 10:00:10;;;;;;;1.38;0.85;;;23.40;99.60;;;;;;4054186;29;20444;-53
2023/07/29 10:02:15;;;;;;;1.58;0.98;;;23.50;99.90;;;;;;4059980;29;20047;-53
2023/07/29 10:04:18;;;;;;;2.13;1.02;;;23.40;99.70;;;;;;4068063;29;20048;-52
2023/07/29 10:06:21;;;;;;;2.85;1.10;;;23.50;99.70;;;;;;4068977;29;20115;-54
2023/07/29 10:08:25;;;;;;;0.77;0.77;;;23.50;99.70;;;;;;4069080;29;20133;-52
2023/07/29 10:10:29;;;;;;;1.63;0.90;;;23.60;99.40;;;;;;4067917;29;20055;-53
2023/07/29 10:12:31;;;;;;;1.80;0.90;;;23.50;99.30;;;;;;4066919;29;20130;-55
2023/07/29 10:14:33;;;;;;;2.83;0.93;;;23.60;99.70;;;;;;4059011;29;20497;-53
2023/07/29 10:16:37;;;;;;;1.65;1.10;;;23.50;99.60;;;;;;4065444;29;20052;-52
2023/07/29 10:18:42;;;;;;;4.10;1.30;;;23.60;99.70;;;;;;4060648;29;20396;-54
2023/07/29 10:20:44;;;;;;;3.08;0.98;;;23.70;99.70;;;;;;4059461;29;20460;-53
2023/07/29 10:22:48;;;;;;;2.60;1.00;;;23.90;99.60;;;;;;4060462;29;20424;-53
2023/07/29 10:24:53;;;;;;;1.77;1.00;;;23.80;99.00;;;;;;4063686;29;20056;-53
2023/07/29 10:26:58;;;;;;;2.63;1.27;;;23.90;99.40;;;;;;4060867;29;20048;-54
2023/07/29 10:29:04;;;;;;;2.70;1.17;;;24.00;99.20;;;;;;4074568;29;20098;-53
2023/07/29 10:31:07;;;;;;;2.08;1.30;;;24.00;99.20;;;;;;4076483;29;20048;-53
2023/07/29 10:33:10;;;;;;;2.58;1.20;;;23.90;99.20;;;;;;4075678;29;20503;-56
2023/07/29 10:35:13;;;;;;;2.10;1.08;;;23.80;99.20;;;;;;4073461;29;20075;-53
2023/07/29 10:37:16;;;;;;;1.40;1.30;;;23.70;99.40;;;;;;4075980;29;20040;-55
2023/07/29 10:39:18;;;;;;;3.70;1.27;;;23.70;99.20;;;;;;4076088;29;20044;-55
2023/07/29 10:41:22;;;;;;;1.25;1.15;;;23.60;99.60;;;;;;4076241;29;20056;-55